sensor_id;sensor_type;location;lat;lon;timestamp;temperature;humidity
15257;DHT22;7731;50.720;6.912;2022-10-24T00:00:20;14.40;99.90
15257;DHT22;7731;50.720;6.912;2022-10-24T00:02:56;14.50;99.90
15257;DHT22;7731;50.720;6.912;2022-10-24T00:05:27;14.50;99.90
15257;DHT22;7731;50.720;6.912;2022-10-24T00:07:57;14.60;99.90
15257;DHT22;7731;50.720;6.912;2022-10-24T00:10:27;14.60;99.90
15257;DHT22;7731;50.720;6.912;2022-10-24T00:13:06;14.60;99.90
15257;DHT22;7731;50.720;6.912;2022-10-24T00:15:42;14.60;99.90
15257;DHT22;7731;50.720;6.912;2022-10-24T00:18:23;14.60;99.90
15257;DHT22;7731;50.720;6.912;2022-10-24T00:20:53;14.70;99.90
15257;DHT22;7731;50.720;6.912;2022-10-24T00:23:26;14.60;99.90
15257;DHT22;7731;50.720;6.912;2022-10-24T00:25:56;14.60;99.90
15257;DHT22;7731;50.720;6.912;2022-10-24T00:28:30;14.60;99.90
15257;DHT22;7731;50.720;6.912;2022-10-24T00:31:01;14.70;99.90
15257;DHT22;7731;50.720;6.912;2022-10-24T00:33:34;14.60;99.90
15257;DHT22;7731;50.720;6.912;2022-10-24T00:36:10;14.60;99.90
15257;DHT22;7731;50.720;6.912;2022-10-24T00:38:43;14.60;99.90
15257;DHT22;7731;50.720;6.912;2022-10-24T00:41:15;14.60;99.90
15257;DHT22;7731;50.720;6.912;2022-10-24T00:43:49;14.60;99.90
15257;DHT22;7731;50.720;6.912;2022-10-24T00:46:20;14.60;99.90
15257;DHT22;7731;50.720;6.912;2022-10-24T00:48:54;14.60;99.90
15257;DHT22;7731;50.720;6.912;2022-10-24T00:51:26;14.60;99.90
15257;DHT22;7731;50.720;6.912;2022-10-24T00:54:02;14.50;99.90
15257;DHT22;7731;50.720;6.912;2022-10-24T00:56:38;14.50;99.90
15257;DHT22;7731;50.720;6.912;2022-10-24T00:59:12;14.50;99.90
15257;DHT22;7731;50.720;6.912;2022-10-24T01:01:44;14.50;99.90
15257;DHT22;7731;50.720;6.912;2022-10-24T01:04:20;14.50;99.90
15257;DHT22;7731;50.720;6.912;2022-10-24T01:07:03;14.40;99.90
15257;DHT22;7731;50.720;6.912;2022-10-24T01:10:10;14.40;99.90
15257;DHT22;7731;50.720;6.912;2022-10-24T01:13:02;14.40;99.90
15257;DHT22;7731;50.720;6.912;2022-10-24T01:15:49;14.30;99.90
15257;DHT22;7731;50.720;6.912;2022-10-24T01:18:25;14.30;99.90
15257;DHT22;7731;50.720;6.912;2022-10-24T01:21:10;14.40;99.90
15257;DHT22;7731;50.720;6.912;2022-10-24T01:30:34;14.60;99.90
15257;DHT22;7731;50.720;6.912;2022-10-24T01:33:16;14.60;99.90
15257;DHT22;7731;50.720;6.912;2022-10-24T01:35:53;14.70;99.90
15257;DHT22;7731;50.720;6.912;2022-10-24T01:38:31;14.60;99.90
15257;DHT22;7731;50.720;6.912;2022-10-24T01:41:08;14.60;99.90
15257;DHT22;7731;50.720;6.912;2022-10-24T01:43:48;14.60;99.90
15257;DHT22;7731;50.720;6.912;2022-10-24T01:46:30;14.70;99.90
15257;DHT22;7731;50.720;6.912;2022-10-24T01:49:06;14.70;99.90
15257;DHT22;7731;50.720;6.912;2022-10-24T01:51:43;14.70;99.90
15257;DHT22;7731;50.720;6.912;2022-10-24T01:54:17;14.70;99.90
15257;DHT22;7731;50.720;6.912;2022-10-24T01:56:48;14.60;99.90
15257;DHT22;7731;50.720;6.912;2022-10-24T01:59:38;14.70;99.90
15257;DHT22;7731;50.720;6.912;2022-10-24T02:02:19;14.70;99.90
15257;DHT22;7731;50.720;6.912;2022-10-24T02:04:58;14.70;99.90
15257;DHT22;7731;50.720;6.912;2022-10-24T02:07:36;14.80;99.90
15257;DHT22;7731;50.720;6.912;2022-10-24T02:10:14;14.80;99.90
15257;DHT22;7731;50.720;6.912;2022-10-24T02:12:52;14.80;99.90
15257;DHT22;7731;50.720;6.912;2022-10-24T02:15:32;14.70;99.90
15257;DHT22;7731;50.720;6.912;2022-10-24T02:18:11;14.80;99.90
15257;DHT22;7731;50.720;6.912;2022-10-24T02:20:50;14.80;99.90
15257;DHT22;7731;50.720;6.912;2022-10-24T02:23:28;14.80;99.90
15257;DHT22;7731;50.720;6.912;2022-10-24T02:26:11;14.80;99.90
15257;DHT22;7731;50.720;6.912;2022-10-24T02:28:48;14.80;99.90
15257;DHT22;7731;50.720;6.912;2022-10-24T02:31:26;14.80;99.90
15257;DHT22;7731;50.720;6.912;2022-10-24T02:34:07;14.80;99.90
15257;DHT22;7731;50.720;6.912;2022-10-24T02:36:49;14.80;99.90
15257;DHT22;7731;50.720;6.912;2022-10-24T02:39:22;14.70;99.90
15257;DHT22;7731;50.720;6.912;2022-10-24T02:41:55;14.70;99.90
15257;DHT22;7731;50.720;6.912;2022-10-24T02:44:31;14.80;99.90
15257;DHT22;7731;50.720;6.912;2022-10-24T02:47:05;14.80;99.90
15257;DHT22;7731;50.720;6.912;2022-10-24T02:49:41;14.70;99.90
15257;DHT22;7731;50.720;6.912;2022-10-24T02:52:11;14.80;99.90
15257;DHT22;7731;50.720;6.912;2022-10-24T02:54:42;14.80;99.90
15257;DHT22;7731;50.720;6.912;2022-10-24T02:57:12;14.80;99.90
15257;DHT22;7731;50.720;6.912;2022-10-24T02:59:49;14.70;99.90
15257;DHT22;7731;50.720;6.912;2022-10-24T03:02:26;14.70;99.90
15257;DHT22;7731;50.720;6.912;2022-10-24T03:05:06;14.60;99.90
15257;DHT22;7731;50.720;6.912;2022-10-24T03:07:37;14.70;99.90
15257;DHT22;7731;50.720;6.912;2022-10-24T03:10:08;14.60;99.90
15257;DHT22;7731;50.720;6.912;2022-10-24T03:12:38;14.60;99.90
15257;DHT22;7731;50.720;6.912;2022-10-24T03:15:09;14.50;99.90
15257;DHT22;7731;50.720;6.912;2022-10-24T03:17:40;14.50;99.90
15257;DHT22;7731;50.720;6.912;2022-10-24T03:20:13;14.50;99.90
15257;DHT22;7731;50.720;6.912;2022-10-24T03:22:44;14.50;99.90
15257;DHT22;7731;50.720;6.912;2022-10-24T03:25:14;14.40;99.90
15257;DHT22;7731;50.720;6.912;2022-10-24T03:27:46;14.40;99.90
15257;DHT22;7731;50.720;6.912;2022-10-24T03:30:17;14.40;99.90
15257;DHT22;7731;50.720;6.912;2022-10-24T03:32:47;14.40;99.90
15257;DHT22;7731;50.720;6.912;2022-10-24T03:35:20;14.40;99.90
15257;DHT22;7731;50.720;6.912;2022-10-24T03:37:50;14.40;99.90
15257;DHT22;7731;50.720;6.912;2022-10-24T03:40:20;14.40;99.90
15257;DHT22;7731;50.720;6.912;2022-10-24T03:42:51;14.30;99.90
15257;DHT22;7731;50.720;6.912;2022-10-24T03:45:21;14.30;99.90
15257;DHT22;7731;50.720;6.912;2022-10-24T03:47:51;14.30;99.90
15257;DHT22;7731;50.720;6.912;2022-10-24T03:50:26;14.30;99.90
15257;DHT22;7731;50.720;6.912;2022-10-24T03:52:59;14.30;99.90
15257;DHT22;7731;50.720;6.912;2022-10-24T03:55:29;14.30;99.90
15257;DHT22;7731;50.720;6.912;2022-10-24T03:57:59;14.40;99.90
15257;DHT22;7731;50.720;6.912;2022-10-24T04:00:33;14.50;99.90
15257;DHT22;7731;50.720;6.912;2022-10-24T04:03:06;14.50;99.90
15257;DHT22;7731;50.720;6.912;2022-10-24T04:05:40;14.50;99.90
15257;DHT22;7731;50.720;6.912;2022-10-24T04:08:10;14.50;99.90
15257;DHT22;7731;50.720;6.912;2022-10-24T04:10:50;14.50;99.90
15257;DHT22;7731;50.720;6.912;2022-10-24T04:13:31;14.40;99.90
15257;DHT22;7731;50.720;6.912;2022-10-24T04:16:06;14.40;99.90
15257;DHT22;7731;50.720;6.912;2022-10-24T04:18:36;14.50;99.90
15257;DHT22;7731;50.720;6.912;2022-10-24T04:21:09;14.60;99.90
15257;DHT22;7731;50.720;6.912;2022-10-24T04:23:45;14.60;99.90
15257;DHT22;7731;50.720;6.912;2022-10-24T04:26:16;14.60;99.90
15257;DHT22;7731;50.720;6.912;2022-10-24T04:28:47;14.60;99.90
15257;DHT22;7731;50.720;6.912;2022-10-24T04:31:17;14.70;99.90
15257;DHT22;7731;50.720;6.912;2022-10-24T04:33:49;14.70;99.90
15257;DHT22;7731;50.720;6.912;2022-10-24T04:36:25;14.70;99.90
15257;DHT22;7731;50.720;6.912;2022-10-24T04:38:55;14.60;99.90
15257;DHT22;7731;50.720;6.912;2022-10-24T04:41:27;14.70;99.90
15257;DHT22;7731;50.720;6.912;2022-10-24T04:43:57;14.70;99.90
15257;DHT22;7731;50.720;6.912;2022-10-24T04:46:28;14.70;99.90
15257;DHT22;7731;50.720;6.912;2022-10-24T04:49:01;14.70;99.90
15257;DHT22;7731;50.720;6.912;2022-10-24T04:51:39;14.70;99.90
15257;DHT22;7731;50.720;6.912;2022-10-24T04:54:09;14.60;99.90
15257;DHT22;7731;50.720;6.912;2022-10-24T04:56:39;14.60;99.90
15257;DHT22;7731;50.720;6.912;2022-10-24T04:59:09;14.70;99.90
15257;DHT22;7731;50.720;6.912;2022-10-24T05:01:39;14.70;99.90
15257;DHT22;7731;50.720;6.912;2022-10-24T05:04:10;14.70;99.90
15257;DHT22;7731;50.720;6.912;2022-10-24T05:06:42;14.60;99.90
15257;DHT22;7731;50.720;6.912;2022-10-24T05:09:13;14.70;99.90
15257;DHT22;7731;50.720;6.912;2022-10-24T05:11:46;14.70;99.90
15257;DHT22;7731;50.720;6.912;2022-10-24T05:14:16;14.70;99.90
15257;DHT22;7731;50.720;6.912;2022-10-24T05:16:46;14.70;99.90
15257;DHT22;7731;50.720;6.912;2022-10-24T05:19:19;14.90;99.90
15257;DHT22;7731;50.720;6.912;2022-10-24T05:21:51;14.90;99.90
15257;DHT22;7731;50.720;6.912;2022-10-24T05:24:21;14.80;99.90
15257;DHT22;7731;50.720;6.912;2022-10-24T05:26:51;14.70;99.90
15257;DHT22;7731;50.720;6.912;2022-10-24T05:29:22;14.80;99.90
15257;DHT22;7731;50.720;6.912;2022-10-24T05:31:52;14.70;99.90
15257;DHT22;7731;50.720;6.912;2022-10-24T05:34:25;14.70;99.90
15257;DHT22;7731;50.720;6.912;2022-10-24T05:36:58;14.70;99.90
15257;DHT22;7731;50.720;6.912;2022-10-24T05:39:31;14.60;99.90
15257;DHT22;7731;50.720;6.912;2022-10-24T05:42:02;14.60;99.90
15257;DHT22;7731;50.720;6.912;2022-10-24T05:44:32;14.60;99.90
15257;DHT22;7731;50.720;6.912;2022-10-24T05:47:03;14.60;99.90
15257;DHT22;7731;50.720;6.912;2022-10-24T05:49:36;14.60;99.90
15257;DHT22;7731;50.720;6.912;2022-10-24T05:52:09;14.60;99.90
15257;DHT22;7731;50.720;6.912;2022-10-24T05:54:46;14.60;99.90
15257;DHT22;7731;50.720;6.912;2022-10-24T05:57:28;14.60;99.90
15257;DHT22;7731;50.720;6.912;2022-10-24T05:59:58;14.70;99.90
15257;DHT22;7731;50.720;6.912;2022-10-24T06:02:29;14.70;99.90
15257;DHT22;7731;50.720;6.912;2022-10-24T06:04:59;14.90;99.90
15257;DHT22;7731;50.720;6.912;2022-10-24T06:07:35;14.90;99.90
15257;DHT22;7731;50.720;6.912;2022-10-24T06:10:10;14.90;99.90
15257;DHT22;7731;50.720;6.912;2022-10-24T06:12:41;14.90;99.90
15257;DHT22;7731;50.720;6.912;2022-10-24T06:15:12;14.90;99.90
15257;DHT22;7731;50.720;6.912;2022-10-24T06:17:42;14.90;99.90
15257;DHT22;7731;50.720;6.912;2022-10-24T06:20:12;15.00;99.90
15257;DHT22;7731;50.720;6.912;2022-10-24T06:22:48;15.10;99.90
15257;DHT22;7731;50.720;6.912;2022-10-24T06:25:24;15.20;99.90
15257;DHT22;7731;50.720;6.912;2022-10-24T06:27:57;15.20;99.90
15257;DHT22;7731;50.720;6.912;2022-10-24T06:30:33;15.20;99.90
15257;DHT22;7731;50.720;6.912;2022-10-24T06:33:07;15.20;99.90
15257;DHT22;7731;50.720;6.912;2022-10-24T06:35:40;15.20;99.90
15257;DHT22;7731;50.720;6.912;2022-10-24T06:38:13;15.20;99.90
15257;DHT22;7731;50.720;6.912;2022-10-24T06:40:43;15.30;99.90
15257;DHT22;7731;50.720;6.912;2022-10-24T06:43:13;15.40;99.90
15257;DHT22;7731;50.720;6.912;2022-10-24T06:45:46;15.50;99.90
15257;DHT22;7731;50.720;6.912;2022-10-24T06:48:16;15.60;99.90
15257;DHT22;7731;50.720;6.912;2022-10-24T06:50:50;15.60;99.90
15257;DHT22;7731;50.720;6.912;2022-10-24T06:53:22;15.60;99.90
15257;DHT22;7731;50.720;6.912;2022-10-24T06:56:02;15.70;99.90
15257;DHT22;7731;50.720;6.912;2022-10-24T06:58:34;15.70;99.90
15257;DHT22;7731;50.720;6.912;2022-10-24T07:01:10;15.70;99.90
15257;DHT22;7731;50.720;6.912;2022-10-24T07:03:45;15.70;99.90
15257;DHT22;7731;50.720;6.912;2022-10-24T07:06:19;15.70;99.90
15257;DHT22;7731;50.720;6.912;2022-10-24T07:08:56;15.70;99.90
15257;DHT22;7731;50.720;6.912;2022-10-24T07:11:28;15.70;99.90
15257;DHT22;7731;50.720;6.912;2022-10-24T07:14:00;15.80;99.90
15257;DHT22;7731;50.720;6.912;2022-10-24T07:16:35;15.80;99.90
15257;DHT22;7731;50.720;6.912;2022-10-24T07:19:07;15.80;99.90
15257;DHT22;7731;50.720;6.912;2022-10-24T07:21:48;15.80;99.90
15257;DHT22;7731;50.720;6.912;2022-10-24T07:24:20;15.80;99.90
15257;DHT22;7731;50.720;6.912;2022-10-24T07:26:53;15.80;99.90
15257;DHT22;7731;50.720;6.912;2022-10-24T07:29:26;15.80;99.90
15257;DHT22;7731;50.720;6.912;2022-10-24T07:31:57;16.00;99.90
15257;DHT22;7731;50.720;6.912;2022-10-24T07:34:30;16.20;99.90
15257;DHT22;7731;50.720;6.912;2022-10-24T07:37:02;16.50;99.90
15257;DHT22;7731;50.720;6.912;2022-10-24T07:39:35;17.00;99.90
15257;DHT22;7731;50.720;6.912;2022-10-24T07:42:15;17.50;99.90
15257;DHT22;7731;50.720;6.912;2022-10-24T07:44:46;17.80;99.90
15257;DHT22;7731;50.720;6.912;2022-10-24T07:47:16;17.90;99.90
15257;DHT22;7731;50.720;6.912;2022-10-24T07:49:49;17.80;99.90
15257;DHT22;7731;50.720;6.912;2022-10-24T07:52:22;17.80;99.90
15257;DHT22;7731;50.720;6.912;2022-10-24T07:54:55;17.70;99.90
15257;DHT22;7731;50.720;6.912;2022-10-24T07:57:31;17.60;99.90
15257;DHT22;7731;50.720;6.912;2022-10-24T08:00:03;17.50;99.90
15257;DHT22;7731;50.720;6.912;2022-10-24T08:02:40;17.40;99.90
15257;DHT22;7731;50.720;6.912;2022-10-24T08:05:10;17.50;99.90
15257;DHT22;7731;50.720;6.912;2022-10-24T08:07:45;17.60;99.90
15257;DHT22;7731;50.720;6.912;2022-10-24T08:10:36;17.60;99.90
15257;DHT22;7731;50.720;6.912;2022-10-24T08:13:09;17.50;99.90
15257;DHT22;7731;50.720;6.912;2022-10-24T08:15:39;17.50;99.90
15257;DHT22;7731;50.720;6.912;2022-10-24T08:18:09;17.50;99.90
15257;DHT22;7731;50.720;6.912;2022-10-24T08:20:39;17.60;99.90
15257;DHT22;7731;50.720;6.912;2022-10-24T08:23:13;17.90;99.90
15257;DHT22;7731;50.720;6.912;2022-10-24T08:25:53;18.30;99.90
15257;DHT22;7731;50.720;6.912;2022-10-24T08:28:29;18.70;99.90
15257;DHT22;7731;50.720;6.912;2022-10-24T08:31:05;18.90;98.30
15257;DHT22;7731;50.720;6.912;2022-10-24T08:33:37;18.90;99.90
15257;DHT22;7731;50.720;6.912;2022-10-24T08:36:14;19.10;99.90
15257;DHT22;7731;50.720;6.912;2022-10-24T08:38:47;19.50;88.50
15257;DHT22;7731;50.720;6.912;2022-10-24T08:41:28;19.60;90.30
15257;DHT22;7731;50.720;6.912;2022-10-24T08:44:03;20.80;37.20
15257;DHT22;7731;50.720;6.912;2022-10-24T08:46:44;22.10;1.00
15257;DHT22;7731;50.720;6.912;2022-10-24T08:49:27;22.70;1.00
15257;DHT22;7731;50.720;6.912;2022-10-24T08:52:10;22.50;1.00
15257;DHT22;7731;50.720;6.912;2022-10-24T08:54:46;22.60;1.00
15257;DHT22;7731;50.720;6.912;2022-10-24T08:57:23;22.30;1.00
15257;DHT22;7731;50.720;6.912;2022-10-24T09:00:00;22.00;1.00
15257;DHT22;7731;50.720;6.912;2022-10-24T09:02:36;21.90;1.00
15257;DHT22;7731;50.720;6.912;2022-10-24T09:05:20;21.10;1.00
15257;DHT22;7731;50.720;6.912;2022-10-24T09:07:57;20.40;36.40
15257;DHT22;7731;50.720;6.912;2022-10-24T09:10:40;20.50;49.70
15257;DHT22;7731;50.720;6.912;2022-10-24T09:13:20;20.20;41.50
15257;DHT22;7731;50.720;6.912;2022-10-24T09:15:51;19.90;54.50
15257;DHT22;7731;50.720;6.912;2022-10-24T09:18:24;19.90;59.20
15257;DHT22;7731;50.720;6.912;2022-10-24T09:20:57;20.70;45.90
15257;DHT22;7731;50.720;6.912;2022-10-24T09:23:33;22.10;1.00
15257;DHT22;7731;50.720;6.912;2022-10-24T09:26:12;23.10;1.00
15257;DHT22;7731;50.720;6.912;2022-10-24T09:28:49;23.30;1.00
15257;DHT22;7731;50.720;6.912;2022-10-24T09:31:25;24.40;99.90
15257;DHT22;7731;50.720;6.912;2022-10-24T09:33:56;24.60;99.90
15257;DHT22;7731;50.720;6.912;2022-10-24T09:36:28;25.30;99.90
15257;DHT22;7731;50.720;6.912;2022-10-24T09:39:22;25.60;1.00
15257;DHT22;7731;50.720;6.912;2022-10-24T09:42:01;26.00;23.60
15257;DHT22;7731;50.720;6.912;2022-10-24T09:44:39;25.50;1.00
15257;DHT22;7731;50.720;6.912;2022-10-24T09:47:24;25.10;1.00
15257;DHT22;7731;50.720;6.912;2022-10-24T09:49:56;25.50;1.00
15257;DHT22;7731;50.720;6.912;2022-10-24T09:52:28;25.70;99.90
15257;DHT22;7731;50.720;6.912;2022-10-24T09:55:14;26.00;99.90
15257;DHT22;7731;50.720;6.912;2022-10-24T09:57:47;26.00;1.00
15257;DHT22;7731;50.720;6.912;2022-10-24T10:00:27;25.50;1.00
15257;DHT22;7731;50.720;6.912;2022-10-24T10:03:04;25.70;99.90
15257;DHT22;7731;50.720;6.912;2022-10-24T10:05:51;25.30;1.00
15257;DHT22;7731;50.720;6.912;2022-10-24T10:08:26;25.40;1.00
15257;DHT22;7731;50.720;6.912;2022-10-24T10:11:01;25.20;1.00
15257;DHT22;7731;50.720;6.912;2022-10-24T10:13:35;24.90;99.90
15257;DHT22;7731;50.720;6.912;2022-10-24T10:16:26;24.20;1.00
15257;DHT22;7731;50.720;6.912;2022-10-24T10:19:04;23.50;1.00
15257;DHT22;7731;50.720;6.912;2022-10-24T10:21:54;23.30;1.00
15257;DHT22;7731;50.720;6.912;2022-10-24T10:24:37;23.50;1.00
15257;DHT22;7731;50.720;6.912;2022-10-24T10:27:31;24.10;99.90
15257;DHT22;7731;50.720;6.912;2022-10-24T10:30:16;24.50;99.90
15257;DHT22;7731;50.720;6.912;2022-10-24T10:33:03;24.80;1.00
15257;DHT22;7731;50.720;6.912;2022-10-24T10:35:48;25.20;99.90
15257;DHT22;7731;50.720;6.912;2022-10-24T10:38:43;25.40;1.00
15257;DHT22;7731;50.720;6.912;2022-10-24T10:41:33;25.60;99.90
15257;DHT22;7731;50.720;6.912;2022-10-24T10:44:22;25.20;1.00
15257;DHT22;7731;50.720;6.912;2022-10-24T10:47:10;24.70;1.00
15257;DHT22;7731;50.720;6.912;2022-10-24T10:49:56;23.80;99.90
15257;DHT22;7731;50.720;6.912;2022-10-24T10:52:31;22.40;1.00
15257;DHT22;7731;50.720;6.912;2022-10-24T10:55:14;22.20;1.00
15257;DHT22;7731;50.720;6.912;2022-10-24T10:57:58;22.30;1.00
15257;DHT22;7731;50.720;6.912;2022-10-24T11:00:45;22.40;1.00
15257;DHT22;7731;50.720;6.912;2022-10-24T11:03:32;21.90;1.00
15257;DHT22;7731;50.720;6.912;2022-10-24T11:06:20;21.70;1.00
15257;DHT22;7731;50.720;6.912;2022-10-24T11:09:26;22.00;1.00
15257;DHT22;7731;50.720;6.912;2022-10-24T11:12:10;21.70;1.00
15257;DHT22;7731;50.720;6.912;2022-10-24T11:14:52;21.30;1.00
15257;DHT22;7731;50.720;6.912;2022-10-24T11:17:33;20.80;1.00
15257;DHT22;7731;50.720;6.912;2022-10-24T11:20:16;20.60;1.00
15257;DHT22;7731;50.720;6.912;2022-10-24T11:22:56;20.30;2.60
15257;DHT22;7731;50.720;6.912;2022-10-24T11:25:34;20.40;9.90
15257;DHT22;7731;50.720;6.912;2022-10-24T11:28:13;20.30;23.50
15257;DHT22;7731;50.720;6.912;2022-10-24T11:30:53;20.30;21.70
15257;DHT22;7731;50.720;6.912;2022-10-24T11:33:32;20.30;21.70
15257;DHT22;7731;50.720;6.912;2022-10-24T11:36:14;20.30;21.70
15257;DHT22;7731;50.720;6.912;2022-10-24T11:39:08;20.20;30.40
15257;DHT22;7731;50.720;6.912;2022-10-24T11:41:47;20.20;37.60
15257;DHT22;7731;50.720;6.912;2022-10-24T11:44:44;20.30;30.00
15257;DHT22;7731;50.720;6.912;2022-10-24T11:47:39;20.40;38.10
15257;DHT22;7731;50.720;6.912;2022-10-24T11:50:25;20.50;19.10
15257;DHT22;7731;50.720;6.912;2022-10-24T11:53:05;20.60;27.20
15257;DHT22;7731;50.720;6.912;2022-10-24T11:55:57;20.80;1.00
15257;DHT22;7731;50.720;6.912;2022-10-24T11:58:33;20.90;3.40
15257;DHT22;7731;50.720;6.912;2022-10-24T12:04:40;21.20;1.00
15257;DHT22;7731;50.720;6.912;2022-10-24T12:11:06;21.00;1.10
15257;DHT22;7731;50.720;6.912;2022-10-24T12:14:12;20.50;13.20
15257;DHT22;7731;50.720;6.912;2022-10-24T12:20:20;20.30;43.70
15257;DHT22;7731;50.720;6.912;2022-10-24T12:22:59;20.10;42.50
15257;DHT22;7731;50.720;6.912;2022-10-24T12:25:32;20.10;40.80
15257;DHT22;7731;50.720;6.912;2022-10-24T12:28:17;20.00;45.00
15257;DHT22;7731;50.720;6.912;2022-10-24T12:31:09;19.90;58.50
15257;DHT22;7731;50.720;6.912;2022-10-24T12:37:33;19.90;43.70
15257;DHT22;7731;50.720;6.912;2022-10-24T12:43:39;20.00;35.70
15257;DHT22;7731;50.720;6.912;2022-10-24T12:49:26;19.80;39.20
15257;DHT22;7731;50.720;6.912;2022-10-24T12:51:58;19.80;46.00
15257;DHT22;7731;50.720;6.912;2022-10-24T12:55:32;19.70;56.90
15257;DHT22;7731;50.720;6.912;2022-10-24T12:58:36;19.60;49.70
15257;DHT22;7731;50.720;6.912;2022-10-24T13:01:11;19.50;59.50
15257;DHT22;7731;50.720;6.912;2022-10-24T13:04:22;19.30;77.60
15257;DHT22;7731;50.720;6.912;2022-10-24T13:10:41;19.30;90.90
15257;DHT22;7731;50.720;6.912;2022-10-24T13:16:50;19.30;93.00
15257;DHT22;7731;50.720;6.912;2022-10-24T13:19:26;19.20;93.30
15257;DHT22;7731;50.720;6.912;2022-10-24T13:21:59;19.30;90.40
15257;DHT22;7731;50.720;6.912;2022-10-24T13:24:32;19.60;75.60
15257;DHT22;7731;50.720;6.912;2022-10-24T13:27:24;19.60;85.30
15257;DHT22;7731;50.720;6.912;2022-10-24T13:33:31;19.60;76.10
15257;DHT22;7731;50.720;6.912;2022-10-24T13:36:13;19.70;76.80
15257;DHT22;7731;50.720;6.912;2022-10-24T13:38:53;19.70;60.80
15257;DHT22;7731;50.720;6.912;2022-10-24T13:41:28;19.60;67.60
15257;DHT22;7731;50.720;6.912;2022-10-24T13:44:04;19.50;73.30
15257;DHT22;7731;50.720;6.912;2022-10-24T13:46:43;19.60;61.20
15257;DHT22;7731;50.720;6.912;2022-10-24T13:49:24;19.50;68.60
15257;DHT22;7731;50.720;6.912;2022-10-24T13:52:06;19.50;58.40
15257;DHT22;7731;50.720;6.912;2022-10-24T13:54:47;19.60;78.90
15257;DHT22;7731;50.720;6.912;2022-10-24T13:57:25;19.60;91.60
15257;DHT22;7731;50.720;6.912;2022-10-24T14:00:01;19.50;92.30
15257;DHT22;7731;50.720;6.912;2022-10-24T14:02:41;19.40;79.90
15257;DHT22;7731;50.720;6.912;2022-10-24T14:05:24;19.30;79.50
15257;DHT22;7731;50.720;6.912;2022-10-24T14:08:01;19.40;88.30
15257;DHT22;7731;50.720;6.912;2022-10-24T14:10:32;19.50;93.20
15257;DHT22;7731;50.720;6.912;2022-10-24T14:13:12;19.40;97.50
15257;DHT22;7731;50.720;6.912;2022-10-24T14:15:47;19.20;99.90
15257;DHT22;7731;50.720;6.912;2022-10-24T14:18:21;18.90;99.90
15257;DHT22;7731;50.720;6.912;2022-10-24T14:20:53;18.80;99.90
15257;DHT22;7731;50.720;6.912;2022-10-24T14:23:34;18.70;99.90
15257;DHT22;7731;50.720;6.912;2022-10-24T14:26:11;18.70;99.90
15257;DHT22;7731;50.720;6.912;2022-10-24T14:28:47;18.80;99.90
15257;DHT22;7731;50.720;6.912;2022-10-24T14:31:27;18.90;99.90
15257;DHT22;7731;50.720;6.912;2022-10-24T14:34:19;18.90;99.90
15257;DHT22;7731;50.720;6.912;2022-10-24T14:36:50;18.90;99.90
15257;DHT22;7731;50.720;6.912;2022-10-24T14:39:22;19.00;99.90
15257;DHT22;7731;50.720;6.912;2022-10-24T14:41:53;19.00;99.90
15257;DHT22;7731;50.720;6.912;2022-10-24T14:44:25;19.00;99.90
15257;DHT22;7731;50.720;6.912;2022-10-24T14:47:04;18.90;99.90
15257;DHT22;7731;50.720;6.912;2022-10-24T14:49:52;18.70;99.90
15257;DHT22;7731;50.720;6.912;2022-10-24T14:52:28;18.60;99.90
15257;DHT22;7731;50.720;6.912;2022-10-24T14:55:15;18.50;99.90
15257;DHT22;7731;50.720;6.912;2022-10-24T14:57:50;18.40;99.90
15257;DHT22;7731;50.720;6.912;2022-10-24T15:00:24;18.30;99.90
15257;DHT22;7731;50.720;6.912;2022-10-24T15:02:57;18.20;99.90
15257;DHT22;7731;50.720;6.912;2022-10-24T15:05:35;18.20;99.90
15257;DHT22;7731;50.720;6.912;2022-10-24T15:08:25;18.20;99.90
15257;DHT22;7731;50.720;6.912;2022-10-24T15:11:13;18.10;99.90
15257;DHT22;7731;50.720;6.912;2022-10-24T15:13:51;18.10;99.90
15257;DHT22;7731;50.720;6.912;2022-10-24T15:16:38;18.10;99.90
15257;DHT22;7731;50.720;6.912;2022-10-24T15:19:13;18.20;99.90
15257;DHT22;7731;50.720;6.912;2022-10-24T15:21:49;18.30;99.90
15257;DHT22;7731;50.720;6.912;2022-10-24T15:24:21;18.40;99.90
15257;DHT22;7731;50.720;6.912;2022-10-24T15:27:09;18.40;99.90
15257;DHT22;7731;50.720;6.912;2022-10-24T15:29:41;18.40;99.90
15257;DHT22;7731;50.720;6.912;2022-10-24T15:32:11;18.40;99.90
15257;DHT22;7731;50.720;6.912;2022-10-24T15:34:41;18.40;99.90
15257;DHT22;7731;50.720;6.912;2022-10-24T15:37:20;18.40;99.90
15257;DHT22;7731;50.720;6.912;2022-10-24T15:39:55;18.40;99.90
15257;DHT22;7731;50.720;6.912;2022-10-24T15:42:33;18.30;99.90
15257;DHT22;7731;50.720;6.912;2022-10-24T15:45:06;18.20;99.90
15257;DHT22;7731;50.720;6.912;2022-10-24T15:47:42;18.20;99.90
15257;DHT22;7731;50.720;6.912;2022-10-24T15:50:17;18.10;99.90
15257;DHT22;7731;50.720;6.912;2022-10-24T15:52:55;18.10;99.90
15257;DHT22;7731;50.720;6.912;2022-10-24T15:55:28;18.00;99.90
15257;DHT22;7731;50.720;6.912;2022-10-24T15:58:00;18.00;99.90
15257;DHT22;7731;50.720;6.912;2022-10-24T16:00:30;17.90;99.90
15257;DHT22;7731;50.720;6.912;2022-10-24T16:03:01;17.90;99.90
15257;DHT22;7731;50.720;6.912;2022-10-24T16:05:36;17.80;99.90
15257;DHT22;7731;50.720;6.912;2022-10-24T16:08:15;17.80;99.90
15257;DHT22;7731;50.720;6.912;2022-10-24T16:10:50;17.70;99.90
15257;DHT22;7731;50.720;6.912;2022-10-24T16:13:22;17.70;99.90
15257;DHT22;7731;50.720;6.912;2022-10-24T16:15:52;17.60;99.90
15257;DHT22;7731;50.720;6.912;2022-10-24T16:18:23;17.60;99.90
15257;DHT22;7731;50.720;6.912;2022-10-24T16:20:53;17.60;99.90
15257;DHT22;7731;50.720;6.912;2022-10-24T16:23:31;17.60;99.90
15257;DHT22;7731;50.720;6.912;2022-10-24T16:26:02;17.50;99.90
15257;DHT22;7731;50.720;6.912;2022-10-24T16:28:35;17.50;99.90
15257;DHT22;7731;50.720;6.912;2022-10-24T16:31:18;17.50;99.90
15257;DHT22;7731;50.720;6.912;2022-10-24T16:33:50;17.50;99.90
15257;DHT22;7731;50.720;6.912;2022-10-24T16:36:20;17.40;99.90
15257;DHT22;7731;50.720;6.912;2022-10-24T16:39:01;17.50;99.90
15257;DHT22;7731;50.720;6.912;2022-10-24T16:41:42;17.40;99.90
15257;DHT22;7731;50.720;6.912;2022-10-24T16:44:12;17.40;99.90
15257;DHT22;7731;50.720;6.912;2022-10-24T16:46:42;17.40;99.90
15257;DHT22;7731;50.720;6.912;2022-10-24T16:49:12;17.40;99.90
15257;DHT22;7731;50.720;6.912;2022-10-24T16:51:43;17.40;99.90
15257;DHT22;7731;50.720;6.912;2022-10-24T16:54:16;17.40;99.90
15257;DHT22;7731;50.720;6.912;2022-10-24T16:56:48;17.30;99.90
15257;DHT22;7731;50.720;6.912;2022-10-24T16:59:20;17.30;99.90
15257;DHT22;7731;50.720;6.912;2022-10-24T17:01:50;17.30;99.90
15257;DHT22;7731;50.720;6.912;2022-10-24T17:04:20;17.30;99.90
15257;DHT22;7731;50.720;6.912;2022-10-24T17:06:52;17.20;99.90
15257;DHT22;7731;50.720;6.912;2022-10-24T17:09:24;17.20;99.90
15257;DHT22;7731;50.720;6.912;2022-10-24T17:11:57;17.20;99.90
15257;DHT22;7731;50.720;6.912;2022-10-24T17:14:33;17.10;99.90
15257;DHT22;7731;50.720;6.912;2022-10-24T17:17:05;17.10;99.90
15257;DHT22;7731;50.720;6.912;2022-10-24T17:19:36;17.00;99.90
15257;DHT22;7731;50.720;6.912;2022-10-24T17:22:16;16.90;99.90
15257;DHT22;7731;50.720;6.912;2022-10-24T17:24:49;16.70;99.90